Cresco, PA

11:23 AM EST on November 26, 2014 (GMT -0500)
Dogwood Ln | Change Station
CLOSE
Current Station
Personal Weather Station
Location: Canadensis, PA
Elevation: 1300 ft
Nearby Weather Stations
Active Advisory: Winter Storm Warning

Elev 1300 ft 41.17 °N, 75.19 °W | Updated 1 second ago

Snow
Snow
33.8 °F
Feels Like 34 °F
N
0.0
Wind Variable Wind from ENE
Gusts 0.0 mph

Today
High -- | Low -- °F
--% Chance of Precip.
Yesterday
High -- | Low -- °F
Precip. -- in
7:01 AM 4:34 PM
Waxing Crescent, 21% visible
Pressure 30.01 in
Visibility 0.5 miles
Clouds
Windchill 34 °F
Dew Point 29 °F
Humidity 81%
Rainfall 0.00 in
Snow Depth Not available.
UV Not available.
Pollen .10 out of 12
Air Quality Not available.
Flu Activity Not available.
SPECI KMPO 261619Z AUTO 03008KT 1/2SM SN FG VV011 00/M02 A3001 RMK AO2 PRESFR P0002 T00001017

More Conditions Fewer Conditions

Pressure 30.01 in
Visibility 0.5 miles
Clouds
Windchill 34 °F
Dew Point 29 °F
Humidity 81%
Rainfall 0.00 in
Snow Depth Not available.
UV Not available.
Pollen .10 out of 12
Air Quality Not available.
Flu Activity Not available.
SPECI KMPO 261619Z AUTO 03008KT 1/2SM SN FG VV011 00/M02 A3001 RMK AO2 PRESFR P0002 T00001017

More Conditions Fewer Conditions

Nowcast | as of 8:50 am EST on November 26, 2014

Light to moderate snow will continue across the area through the morning hours, with some light rain possible mixing in at times early. Snow is expected to become heavier through the morning as well. Temperatures right around freezing and northeast winds around 5 to 10 mph with gusts around 15 to 20 mph will continue as well. Drivers are urged to use caution and be alert for changing weather conditions and roadway conditions.

×

10-Day Weather Forecast

Almanac

Astronomy

Nov. 26, 2014 Rise Set
Actual Time
Civil Twilight
Nautical Twilight
Astronomical Twilight
Moon
Length of Visible Light
Length of Day
Tomorrow will be .
, % of the Moon is Illuminated

Today's Extremes

State Highs State Lows

Community

WunderPhotos

Upload Photos

1,773,784 photos uploaded!

WunderBlogs® & News

Nearby

Air Quality

  Air Quality AQ Index Pollutant
Not available.

Snow Depth

Station Depth Elevation

Earthquake Activity

City Distance Mag. Time & Date
Minimum magnitude displayed is 2.5.

Coastal Water Temperatures

Place Temperature

Nearby Weather Stations